Time;durP1;ratioP1;P1;durP2;ratioP2;P2;SDS_P1;SDS_P2;PMS_P1;PMS_P2;Temp;Humidity;BMP_temperature;BMP_pressure;BME280_temperature;BME280_humidity;BME280_pressure;Samples;Min_cycle;Max_cycle;Signal;HPM_P1;HPM_P2
2023/10/11 00:01:01;;;;;;;17.33;8.70;;;16.40;32.50;;;;;;5095510;28;20411;-49
2023/10/11 00:05:53;;;;;;;19.03;9.47;;;16.50;21.30;;;;;;5095352;28;20544;-50
2023/10/11 00:08:20;;;;;;;13.97;7.83;;;16.40;28.80;;;;;;5095556;28;20483;-49
2023/10/11 00:10:53;;;;;;;18.00;8.10;;;16.40;33.90;;;;;;5095453;28;20425;-49
2023/10/11 00:13:21;;;;;;;16.40;8.27;;;16.30;39.90;;;;;;5095066;28;20447;-49
2023/10/11 00:15:49;;;;;;;17.73;8.97;;;16.30;35.70;;;;;;5095018;28;20431;-50
2023/10/11 00:18:19;;;;;;;14.90;8.93;;;16.40;24.90;;;;;;5095154;28;20759;-49
2023/10/11 00:20:50;;;;;;;13.90;7.63;;;16.40;17.30;;;;;;5094998;28;20400;-49
2023/10/11 00:23:17;;;;;;;13.53;7.73;;;16.40;17.90;;;;;;5094939;28;20414;-50
2023/10/11 00:25:44;;;;;;;16.30;8.50;;;16.40;21.10;;;;;;5095328;28;20479;-49
2023/10/11 00:28:10;;;;;;;14.70;9.03;;;16.40;19.50;;;;;;5094841;28;20420;-49
2023/10/11 00:30:38;;;;;;;18.70;8.40;;;16.40;21.10;;;;;;5095326;28;20420;-50
2023/10/11 00:33:05;;;;;;;15.63;7.93;;;16.40;21.10;;;;;;5094891;28;20428;-50
2023/10/11 00:35:32;;;;;;;17.13;8.40;;;16.40;27.90;;;;;;5094898;28;20473;-50
2023/10/11 00:38:00;;;;;;;13.87;9.53;;;16.40;24.40;;;;;;5094828;28;20454;-49
2023/10/11 00:40:28;;;;;;;14.70;8.50;;;16.30;26.40;;;;;;5094353;28;20408;-49
2023/10/11 00:42:59;;;;;;;17.20;8.77;;;16.30;30.50;;;;;;5094775;28;20428;-49
2023/10/11 00:45:30;;;;;;;19.23;8.33;;;16.30;41.20;;;;;;5094534;28;20422;-51
2023/10/11 00:47:59;;;;;;;16.13;8.33;;;16.30;39.20;;;;;;5094753;28;20412;-49
2023/10/11 00:50:26;;;;;;;17.47;8.90;;;16.30;40.00;;;;;;5094523;28;21206;-49
2023/10/11 00:52:52;;;;;;;18.43;7.93;;;16.30;36.10;;;;;;5094240;28;20453;-49
2023/10/11 00:55:20;;;;;;;15.03;8.70;;;16.30;36.80;;;;;;5094149;28;20411;-50
2023/10/11 00:57:49;;;;;;;13.30;8.33;;;16.30;43.20;;;;;;5094237;28;20931;-51
2023/10/11 01:00:16;;;;;;;18.27;8.30;;;16.10;66.20;;;;;;5094101;28;20512;-48
2023/10/11 01:02:46;;;;;;;18.03;8.57;;;16.10;80.00;;;;;;5094613;28;20452;-49
2023/10/11 01:05:12;;;;;;;15.30;7.97;;;16.00;97.50;;;;;;5094286;28;20413;-49
2023/10/11 01:07:39;;;;;;;11.20;7.70;;;16.00;99.90;;;;;;5093923;28;20670;-59
2023/10/11 01:10:08;;;;;;;14.27;8.23;;;16.00;99.90;;;;;;5094813;28;20458;-49
2023/10/11 01:12:38;;;;;;;14.87;7.50;;;16.10;99.90;;;;;;5094631;28;20512;-50
2023/10/11 01:15:11;;;;;;;16.83;8.40;;;16.10;99.90;;;;;;5094426;28;20471;-50
2023/10/11 01:17:38;;;;;;;13.97;8.27;;;16.10;99.90;;;;;;5094056;28;20898;-52
2023/10/11 01:20:13;;;;;;;22.00;7.97;;;16.10;97.00;;;;;;5094607;28;20410;-50
2023/10/11 01:22:45;;;;;;;14.43;7.80;;;16.20;99.90;;;;;;5094065;28;20441;-59
2023/10/11 01:25:20;;;;;;;13.67;8.70;;;16.10;99.90;;;;;;5093726;28;20559;-50
2023/10/11 01:27:47;;;;;;;16.20;8.50;;;16.10;99.00;;;;;;5094154;28;20405;-49
2023/10/11 01:30:13;;;;;;;13.03;7.77;;;16.10;99.90;;;;;;5093865;28;20800;-50
2023/10/11 01:32:41;;;;;;;19.73;8.20;;;16.10;99.90;;;;;;5094016;28;20771;-59
2023/10/11 01:35:12;;;;;;;14.37;8.50;;;16.10;99.90;;;;;;5093566;28;20456;-50
2023/10/11 01:37:44;;;;;;;14.90;8.87;;;16.10;99.90;;;;;;5093970;28;20426;-50
2023/10/11 01:40:20;;;;;;;14.87;7.90;;;16.00;99.90;;;;;;5093643;28;20404;-53
2023/10/11 01:42:52;;;;;;;13.17;8.30;;;16.00;99.90;;;;;;5093917;28;20480;-49
2023/10/11 01:45:19;;;;;;;16.53;8.93;;;16.00;99.90;;;;;;5093243;28;20462;-49
2023/10/11 01:47:47;;;;;;;14.13;7.77;;;16.00;99.90;;;;;;5093923;28;20435;-49
2023/10/11 01:50:17;;;;;;;16.47;7.23;;;16.00;99.90;;;;;;5093269;28;20943;-50
2023/10/11 01:52:47;;;;;;;15.37;8.07;;;16.00;99.90;;;;;;5093359;28;20416;-49
2023/10/11 01:55:14;;;;;;;17.90;8.53;;;16.00;99.90;;;;;;5093047;28;20488;-49
2023/10/11 01:57:48;;;;;;;13.17;8.43;;;15.90;99.90;;;;;;5093048;28;20459;-56
2023/10/11 02:00:23;;;;;;;13.53;8.57;;;15.90;99.90;;;;;;5091524;28;20732;-50
2023/10/11 02:02:55;;;;;;;13.50;8.67;;;15.90;99.90;;;;;;5093189;28;20470;-49
2023/10/11 02:05:21;;;;;;;13.50;8.30;;;15.90;99.90;;;;;;5093582;28;20437;-48
2023/10/11 02:07:47;;;;;;;17.23;8.00;;;15.80;99.90;;;;;;5093298;28;20776;-52
2023/10/11 02:10:12;;;;;;;18.20;8.87;;;15.70;99.90;;;;;;5092621;28;20415;-50
2023/10/11 02:12:44;;;;;;;19.10;9.47;;;15.80;99.90;;;;;;5093658;28;20207;-49
2023/10/11 02:15:11;;;;;;;16.97;9.40;;;15.70;99.90;;;;;;5092950;28;20207;-54
2023/10/11 02:17:39;;;;;;;14.03;8.20;;;15.70;99.90;;;;;;5093277;28;20467;-50
2023/10/11 02:20:20;;;;;;;12.90;8.20;;;15.70;99.90;;;;;;5093363;28;20462;-49
2023/10/11 02:22:46;;;;;;;20.60;8.60;;;15.70;99.90;;;;;;5092847;28;20489;-49
2023/10/11 02:25:15;;;;;;;13.73;8.50;;;15.60;99.90;;;;;;5093185;28;20591;-49
2023/10/11 02:27:41;;;;;;;17.87;8.00;;;15.60;99.90;;;;;;5093084;28;20205;-50
2023/10/11 02:30:13;;;;;;;18.10;9.13;;;15.60;99.90;;;;;;5093067;28;20427;-49
2023/10/11 02:32:41;;;;;;;14.33;8.80;;;15.60;99.90;;;;;;5092940;28;20408;-49
2023/10/11 02:35:11;;;;;;;15.03;8.53;;;15.60;99.90;;;;;;5092771;28;20448;-50
2023/10/11 02:37:37;;;;;;;17.20;9.00;;;15.60;99.90;;;;;;5092801;28;20405;-49
2023/10/11 02:40:07;;;;;;;15.50;8.23;;;15.70;99.90;;;;;;5092593;28;20975;-51
2023/10/11 02:42:36;;;;;;;14.43;8.87;;;15.70;99.90;;;;;;5092462;28;20642;-50
2023/10/11 02:45:08;;;;;;;14.93;8.73;;;15.70;99.90;;;;;;5093097;28;20416;-49
2023/10/11 02:47:35;;;;;;;19.90;9.63;;;15.60;99.90;;;;;;5092522;28;20410;-49
2023/10/11 02:50:05;;;;;;;16.30;9.63;;;15.60;99.90;;;;;;5092365;28;20441;-49
2023/10/11 02:52:35;;;;;;;17.57;9.30;;;15.60;1.00;;;;;;5092092;28;20516;-49
2023/10/11 02:55:26;;;;;;;20.63;8.33;;;15.60;99.90;;;;;;5092098;28;20902;-49
2023/10/11 02:58:07;;;;;;;16.30;9.43;;;15.70;99.90;;;;;;5091971;28;20405;-49
2023/10/11 03:00:34;;;;;;;27.07;10.00;;;15.60;1.00;;;;;;5092218;28;20388;-48
2023/10/11 03:03:00;;;;;;;16.70;9.00;;;15.60;1.00;;;;;;5091767;28;20419;-49
2023/10/11 03:05:29;;;;;;;18.80;10.10;;;15.60;1.00;;;;;;5092338;28;20419;-48
2023/10/11 03:07:56;;;;;;;16.70;9.60;;;15.60;1.00;;;;;;5092197;28;20518;-49
2023/10/11 03:10:22;;;;;;;14.60;9.63;;;15.60;1.00;;;;;;5091128;28;20944;-49
2023/10/11 03:12:51;;;;;;;16.70;9.10;;;15.60;1.00;;;;;;5092130;28;20794;-50
2023/10/11 03:15:19;;;;;;;17.50;9.67;;;15.60;1.00;;;;;;5091837;28;20480;-50
2023/10/11 03:17:48;;;;;;;19.60;10.60;;;15.70;1.00;;;;;;5092017;28;20415;-49
2023/10/11 03:20:25;;;;;;;14.37;8.90;;;15.70;1.00;;;;;;5091753;28;20425;-51
2023/10/11 03:22:51;;;;;;;15.73;9.20;;;15.70;1.00;;;;;;5091966;28;20412;-49
2023/10/11 03:25:19;;;;;;;24.83;10.00;;;15.70;1.00;;;;;;5091634;28;20967;-49
2023/10/11 03:27:49;;;;;;;16.80;9.97;;;15.60;1.00;;;;;;5092183;28;20418;-48
2023/10/11 03:30:24;;;;;;;16.90;9.60;;;15.60;1.00;;;;;;5092534;28;20424;-52
2023/10/11 03:32:50;;;;;;;17.00;10.10;;;15.70;1.00;;;;;;5091946;28;20463;-49
2023/10/11 03:35:18;;;;;;;25.27;9.30;;;15.60;1.00;;;;;;5092086;28;20475;-50
2023/10/11 03:37:57;;;;;;;13.93;9.50;;;15.70;1.00;;;;;;5091619;28;20431;-49
2023/10/11 03:40:54;;;;;;;16.17;9.43;;;15.60;1.00;;;;;;5091935;28;20440;-49
2023/10/11 03:43:20;;;;;;;19.70;10.50;;;15.60;1.00;;;;;;5092072;28;20410;-48
2023/10/11 03:45:49;;;;;;;19.37;10.37;;;15.60;1.00;;;;;;5091557;28;20462;-49
2023/10/11 03:48:17;;;;;;;18.30;9.97;;;15.60;1.00;;;;;;5092019;28;20448;-50
2023/10/11 03:50:51;;;;;;;19.17;10.07;;;15.60;1.00;;;;;;5092098;28;20818;-50
2023/10/11 03:53:16;;;;;;;22.80;10.07;;;15.60;1.00;;;;;;5091686;28;20443;-49
2023/10/11 03:55:46;;;;;;;20.17;10.30;;;15.60;1.00;;;;;;5092021;28;20481;-53
2023/10/11 03:58:50;;;;;;;15.90;9.80;;;15.60;1.00;;;;;;5091504;28;20642;-61
2023/10/11 04:01:12;;;;;;;19.93;10.20;;;15.60;1.00;;;;;;5090168;28;20918;-48
2023/10/11 04:03:41;;;;;;;21.00;10.03;;;15.60;1.00;;;;;;5092225;28;20783;-49
2023/10/11 04:06:13;;;;;;;16.37;9.67;;;15.60;1.00;;;;;;5092037;28;20424;-49
2023/10/11 04:08:48;;;;;;;17.60;9.57;;;15.60;1.00;;;;;;5092129;28;20404;-50
2023/10/11 04:11:30;;;;;;;23.13;10.67;;;15.50;1.00;;;;;;5091660;28;20499;-50
2023/10/11 04:13:56;;;;;;;17.63;9.90;;;15.60;1.00;;;;;;5091669;28;20455;-50
2023/10/11 04:16:23;;;;;;;19.90;10.23;;;15.60;1.00;;;;;;5091502;28;20886;-49
2023/10/11 04:18:52;;;;;;;16.13;9.00;;;15.60;1.00;;;;;;5091392;28;20199;-50
2023/10/11 04:23:55;;;;;;;19.87;10.10;;;15.60;1.00;;;;;;5095424;28;20462;-48
2023/10/11 04:26:33;;;;;;;16.37;9.87;;;15.50;1.00;;;;;;5095324;28;20410;-48
2023/10/11 04:29:18;;;;;;;21.60;10.33;;;15.60;1.00;;;;;;5095418;28;20412;-50
2023/10/11 04:34:31;;;;;;;17.13;10.20;;;15.60;1.00;;;;;;5094950;28;20512;-49
2023/10/11 04:36:57;;;;;;;18.57;10.43;;;15.60;1.00;;;;;;5094863;28;20420;-52
2023/10/11 04:39:33;;;;;;;17.93;10.40;;;15.60;1.00;;;;;;5094706;28;20751;-48
2023/10/11 04:42:00;;;;;;;25.23;11.53;;;15.60;1.00;;;;;;5094867;28;20182;-49
2023/10/11 04:44:42;;;;;;;17.63;10.10;;;15.50;1.00;;;;;;5094468;28;20500;-49
2023/10/11 04:47:09;;;;;;;19.67;10.77;;;15.50;1.00;;;;;;5095171;28;20407;-50
2023/10/11 04:49:34;;;;;;;22.83;10.83;;;15.50;1.00;;;;;;5094485;28;20425;-48
2023/10/11 04:52:00;;;;;;;16.03;9.67;;;15.50;1.00;;;;;;5094766;28;20492;-48
2023/10/11 04:54:42;;;;;;;20.50;9.33;;;15.50;1.00;;;;;;5094209;28;20656;-49
2023/10/11 04:57:16;;;;;;;15.43;9.73;;;15.50;1.00;;;;;;5094644;28;20590;-49
2023/10/11 04:59:42;;;;;;;20.57;10.67;;;15.40;1.00;;;;;;5094800;28;20414;-50
2023/10/11 05:02:09;;;;;;;20.03;10.10;;;15.40;1.00;;;;;;5094628;28;20839;-50
2023/10/11 05:04:41;;;;;;;17.53;10.70;;;15.40;1.00;;;;;;5094522;28;20224;-54
2023/10/11 05:07:07;;;;;;;18.10;9.83;;;15.50;1.00;;;;;;5094357;28;20927;-50
2023/10/11 05:09:41;;;;;;;23.17;10.90;;;15.50;1.00;;;;;;5093749;28;20460;-50
2023/10/11 05:12:09;;;;;;;16.93;10.00;;;15.50;1.00;;;;;;5094227;28;20928;-50
2023/10/11 05:14:56;;;;;;;20.17;10.40;;;15.50;1.00;;;;;;5093924;28;20953;-49
2023/10/11 05:25:39;;;;;;;16.47;9.83;;;15.50;1.00;;;;;;5094076;28;20809;-51
2023/10/11 05:28:26;;;;;;;21.53;11.43;;;15.50;1.00;;;;;;5093453;28;20429;-48
2023/10/11 05:31:19;;;;;;;22.23;11.10;;;15.40;1.00;;;;;;5093988;28;20765;-50
2023/10/11 05:33:59;;;;;;;17.13;10.90;;;15.40;1.00;;;;;;5092715;28;20982;-50
2023/10/11 05:52:59;;;;;;;20.57;11.10;;;15.20;99.90;;;;;;5091978;28;20464;-49
2023/10/11 05:55:25;;;;;;;20.10;11.40;;;15.20;99.90;;;;;;5093192;28;20416;-49
2023/10/11 05:57:51;;;;;;;15.70;10.30;;;15.30;99.90;;;;;;5092668;28;20181;-50
2023/10/11 06:00:23;;;;;;;18.70;10.20;;;15.30;99.90;;;;;;5092310;28;20189;-50
2023/10/11 06:02:53;;;;;;;24.30;11.57;;;15.30;99.90;;;;;;5092000;28;20947;-59
2023/10/11 06:05:23;;;;;;;23.93;11.67;;;15.30;99.90;;;;;;5084676;28;20435;-49
2023/10/11 06:08:00;;;;;;;17.80;11.47;;;15.30;99.90;;;;;;5081442;28;20447;-50
2023/10/11 06:10:41;;;;;;;18.00;11.00;;;15.30;99.90;;;;;;5087831;28;20479;-49
2023/10/11 06:13:13;;;;;;;15.03;9.90;;;15.40;77.20;;;;;;5092366;28;20411;-49
2023/10/11 06:16:00;;;;;;;19.73;10.33;;;15.40;4.20;;;;;;5093350;28;20427;-49
2023/10/11 06:18:38;;;;;;;17.70;10.40;;;15.50;11.40;;;;;;5092743;28;20972;-50
2023/10/11 06:21:05;;;;;;;15.90;10.90;;;15.50;1.00;;;;;;5092463;28;20422;-49
2023/10/11 06:23:32;;;;;;;20.60;11.37;;;15.50;1.00;;;;;;5092971;28;20758;-49
2023/10/11 06:25:59;;;;;;;20.53;11.53;;;15.50;1.00;;;;;;5088841;28;20605;-50
2023/10/11 06:28:30;;;;;;;22.93;10.30;;;15.60;1.00;;;;;;5092696;28;20428;-50
2023/10/11 06:31:00;;;;;;;20.50;11.37;;;15.60;1.00;;;;;;5092900;28;20417;-50
2023/10/11 06:33:26;;;;;;;21.83;11.90;;;15.60;1.00;;;;;;5092382;28;20461;-52
2023/10/11 06:35:53;;;;;;;19.30;10.10;;;15.70;1.00;;;;;;5092430;28;20893;-49
2023/10/11 06:38:21;;;;;;;18.43;11.33;;;15.70;1.00;;;;;;5091571;28;20428;-49
2023/10/11 06:40:49;;;;;;;17.70;10.00;;;15.70;1.00;;;;;;5092450;28;20442;-49
2023/10/11 06:43:15;;;;;;;17.10;10.47;;;15.80;1.00;;;;;;5092537;28;20422;-50
2023/10/11 06:45:42;;;;;;;16.80;10.10;;;15.80;1.00;;;;;;5085821;28;20571;-49
2023/10/11 06:48:08;;;;;;;19.73;10.93;;;15.80;1.00;;;;;;5084734;28;20431;-50
2023/10/11 06:50:38;;;;;;;14.63;9.93;;;15.90;1.00;;;;;;5082641;28;20439;-48
2023/10/11 06:53:08;;;;;;;26.80;11.67;;;15.90;99.90;;;;;;5084178;28;20432;-49
2023/10/11 06:55:40;;;;;;;19.27;10.73;;;16.00;99.90;;;;;;5084060;28;20460;-49
2023/10/11 06:58:16;;;;;;;21.23;10.87;;;16.10;99.90;;;;;;5082200;28;20440;-50
2023/10/11 07:00:53;;;;;;;22.67;9.83;;;16.10;99.90;;;;;;5083976;28;20468;-51
2023/10/11 07:05:49;;;;;;;16.97;10.50;;;16.30;99.90;;;;;;5082063;28;20455;-48
2023/10/11 07:08:19;;;;;;;18.50;11.13;;;16.30;99.90;;;;;;5083886;28;20464;-60
2023/10/11 07:10:45;;;;;;;18.73;10.30;;;16.30;99.90;;;;;;5082992;28;20487;-60
2023/10/11 07:13:13;;;;;;;17.70;10.30;;;16.30;99.90;;;;;;5082716;28;20937;-49
2023/10/11 07:15:44;;;;;;;22.60;10.97;;;16.30;99.90;;;;;;5083665;28;20449;-50
2023/10/11 07:18:21;;;;;;;24.20;10.30;;;16.30;99.90;;;;;;5082537;28;20931;-51
2023/10/11 07:20:47;;;;;;;15.30;10.10;;;16.30;99.90;;;;;;5081593;28;21003;-51
2023/10/11 07:23:22;;;;;;;21.27;10.70;;;16.30;99.90;;;;;;5083454;28;20431;-49
2023/10/11 07:25:59;;;;;;;19.67;10.73;;;16.30;99.90;;;;;;5082095;28;20322;-50
2023/10/11 07:28:37;;;;;;;22.47;10.90;;;16.30;99.90;;;;;;5082700;28;20444;-58
2023/10/11 07:31:05;;;;;;;18.40;9.37;;;16.40;99.90;;;;;;5080591;28;20433;-50
2023/10/11 07:33:36;;;;;;;17.57;10.13;;;16.30;99.90;;;;;;5081953;28;20458;-50
2023/10/11 07:36:02;;;;;;;21.70;10.80;;;16.40;99.90;;;;;;5082413;28;20526;-52
2023/10/11 07:38:34;;;;;;;16.03;10.43;;;16.40;99.90;;;;;;5083919;28;20462;-49
2023/10/11 07:41:17;;;;;;;21.97;10.50;;;16.40;99.90;;;;;;5082008;28;20200;-49
2023/10/11 07:43:45;;;;;;;19.13;10.13;;;16.50;99.90;;;;;;5081573;28;20462;-48
2023/10/11 07:46:11;;;;;;;23.70;11.00;;;16.50;99.90;;;;;;5080068;28;20432;-49
2023/10/11 07:48:39;;;;;;;20.07;11.10;;;16.50;99.90;;;;;;5081813;28;20448;-49
2023/10/11 07:51:09;;;;;;;19.03;9.70;;;16.60;99.90;;;;;;5083765;28;20436;-50
2023/10/11 07:53:40;;;;;;;17.20;10.13;;;16.60;99.90;;;;;;5083074;28;20469;-49
2023/10/11 07:56:06;;;;;;;29.23;11.53;;;16.60;99.90;;;;;;5080699;28;20809;-56
2023/10/11 07:58:35;;;;;;;19.87;10.43;;;16.60;99.90;;;;;;5086973;28;20521;-49
2023/10/11 08:01:15;;;;;;;20.90;10.00;;;16.70;99.90;;;;;;5083273;28;20196;-49
2023/10/11 08:03:44;;;;;;;23.00;10.00;;;16.70;99.90;;;;;;5085400;28;20531;-51
2023/10/11 08:06:25;;;;;;;27.53;11.13;;;16.70;99.90;;;;;;5083536;28;20848;-49
2023/10/11 08:08:58;;;;;;;21.27;10.50;;;16.70;99.90;;;;;;5086856;28;20426;-50
2023/10/11 08:11:28;;;;;;;19.27;11.13;;;16.70;99.90;;;;;;5086491;28;20497;-49
2023/10/11 08:14:00;;;;;;;22.77;10.03;;;16.70;99.90;;;;;;5086785;28;20468;-50
2023/10/11 08:16:26;;;;;;;22.97;10.83;;;16.80;99.90;;;;;;5087282;28;20814;-51
2023/10/11 08:18:52;;;;;;;21.40;11.00;;;16.80;99.90;;;;;;5084853;28;20444;-51
2023/10/11 08:21:18;;;;;;;15.97;10.20;;;16.80;99.90;;;;;;5087144;28;20432;-49
2023/10/11 08:23:44;;;;;;;19.37;9.90;;;16.80;99.90;;;;;;5085984;28;20447;-49
2023/10/11 08:26:14;;;;;;;22.63;10.23;;;16.80;99.90;;;;;;5086992;28;20219;-50
2023/10/11 08:28:48;;;;;;;19.73;10.40;;;16.90;99.90;;;;;;5085422;28;20710;-50
2023/10/11 08:34:15;;;;;;;18.23;10.63;;;17.00;99.90;;;;;;5063800;28;20470;-52
2023/10/11 08:36:43;;;;;;;23.03;11.27;;;17.00;99.90;;;;;;5086577;28;20795;-50
2023/10/11 08:39:09;;;;;;;26.10;11.47;;;17.00;99.90;;;;;;5085039;28;20194;-52
2023/10/11 08:41:34;;;;;;;17.77;10.23;;;17.10;99.90;;;;;;5084930;28;20525;-52
2023/10/11 08:44:02;;;;;;;25.20;11.10;;;17.30;99.90;;;;;;5086630;28;20249;-49
2023/10/11 08:46:32;;;;;;;24.37;11.37;;;17.40;86.40;;;;;;5085458;28;20253;-50
2023/10/11 08:49:00;;;;;;;19.07;10.93;;;17.50;64.60;;;;;;5086409;28;20519;-52
2023/10/11 08:51:36;;;;;;;19.77;11.10;;;17.50;60.20;;;;;;5084960;28;20451;-50
2023/10/11 08:54:11;;;;;;;21.73;10.90;;;17.60;66.50;;;;;;5083249;28;20991;-51
2023/10/11 08:56:38;;;;;;;20.60;11.27;;;17.70;36.30;;;;;;5086325;28;20461;-50
2023/10/11 08:59:04;;;;;;;20.80;10.93;;;17.70;28.00;;;;;;5084726;28;20429;-49
2023/10/11 09:01:34;;;;;;;20.23;11.23;;;17.70;54.60;;;;;;5085738;28;20966;-51
2023/10/11 09:04:16;;;;;;;22.77;11.90;;;17.50;48.40;;;;;;5085913;28;20268;-53
2023/10/11 09:06:45;;;;;;;23.43;10.47;;;17.50;53.50;;;;;;5085315;28;20449;-50
2023/10/11 09:09:39;;;;;;;19.60;11.83;;;17.40;63.70;;;;;;5084207;28;20775;-50
2023/10/11 09:12:23;;;;;;;19.53;10.97;;;17.50;64.50;;;;;;5082832;28;20442;-50
2023/10/11 09:14:59;;;;;;;19.77;10.97;;;17.50;54.30;;;;;;5084972;28;20462;-55
2023/10/11 09:17:27;;;;;;;18.97;11.17;;;17.70;48.80;;;;;;5082535;28;20436;-49
2023/10/11 09:19:56;;;;;;;26.67;11.80;;;17.70;41.30;;;;;;5084070;28;20442;-51
2023/10/11 09:22:23;;;;;;;19.03;11.57;;;17.80;30.00;;;;;;5084529;28;24095;-56
2023/10/11 09:25:07;;;;;;;22.60;11.30;;;17.90;34.70;;;;;;5085198;28;20485;-50
2023/10/11 09:27:51;;;;;;;26.23;11.77;;;17.90;21.70;;;;;;5084555;28;20424;-53
2023/10/11 09:30:20;;;;;;;22.70;12.30;;;17.90;26.10;;;;;;5083802;28;20435;-49
2023/10/11 09:32:51;;;;;;;19.47;12.07;;;18.00;8.00;;;;;;5086757;28;20439;-49
2023/10/11 09:35:28;;;;;;;22.47;11.40;;;18.00;7.40;;;;;;5085931;28;20470;-49
2023/10/11 09:37:57;;;;;;;22.13;12.50;;;18.00;13.20;;;;;;5084625;28;21641;-49
2023/10/11 09:40:31;;;;;;;23.60;12.63;;;18.00;14.40;;;;;;5084682;28;20487;-50
2023/10/11 09:43:00;;;;;;;23.23;12.10;;;18.00;17.60;;;;;;5085458;28;20529;-50
2023/10/11 09:45:29;;;;;;;21.37;11.30;;;18.00;20.00;;;;;;5083925;28;20442;-49
2023/10/11 09:47:55;;;;;;;32.50;12.77;;;17.80;33.00;;;;;;5084766;28;20530;-49
2023/10/11 09:50:26;;;;;;;25.37;12.37;;;17.80;57.50;;;;;;5084248;28;20773;-49
2023/10/11 09:52:55;;;;;;;22.90;12.80;;;17.70;60.40;;;;;;5083374;28;20448;-50
2023/10/11 09:55:31;;;;;;;24.83;13.97;;;17.70;65.30;;;;;;5085385;28;20522;-49
2023/10/11 09:58:22;;;;;;;27.23;12.87;;;17.70;86.10;;;;;;5084140;28;20829;-49
2023/10/11 10:01:12;;;;;;;19.07;12.73;;;17.70;88.50;;;;;;5083133;28;20445;-53
2023/10/11 10:03:46;;;;;;;25.73;12.90;;;17.60;97.40;;;;;;5082380;28;20481;-49
2023/10/11 10:06:24;;;;;;;22.90;13.10;;;17.60;99.90;;;;;;5083951;28;20450;-50
2023/10/11 10:12:05;;;;;;;22.57;13.40;;;17.50;99.90;;;;;;5081744;28;20455;-53
2023/10/11 10:14:33;;;;;;;28.40;13.77;;;17.50;99.90;;;;;;5081633;28;20561;-51
2023/10/11 10:17:13;;;;;;;26.60;13.60;;;17.50;99.90;;;;;;5083010;28;20445;-49
2023/10/11 10:19:39;;;;;;;27.10;13.80;;;17.50;99.90;;;;;;5083223;28;20439;-49
2023/10/11 10:22:11;;;;;;;19.07;13.27;;;17.50;99.90;;;;;;5084884;28;20430;-49
2023/10/11 10:24:37;;;;;;;20.87;13.73;;;17.50;99.90;;;;;;5083678;28;20489;-49
2023/10/11 10:27:31;;;;;;;27.47;13.63;;;17.40;99.90;;;;;;5083115;28;20423;-49
2023/10/11 10:30:05;;;;;;;20.50;13.40;;;17.40;99.90;;;;;;5081397;28;20202;-50
2023/10/11 10:32:32;;;;;;;23.77;14.43;;;17.40;99.90;;;;;;5080651;28;20947;-49
2023/10/11 10:35:18;;;;;;;25.77;14.50;;;17.40;99.90;;;;;;5083213;28;20848;-50
2023/10/11 10:37:50;;;;;;;27.50;13.87;;;17.40;99.90;;;;;;5083190;28;20456;-49
2023/10/11 10:40:26;;;;;;;20.73;14.10;;;17.40;99.90;;;;;;5084031;28;20443;-54
2023/10/11 10:43:07;;;;;;;25.50;14.10;;;17.40;99.90;;;;;;5083832;28;20440;-49
2023/10/11 10:45:34;;;;;;;22.37;13.47;;;17.40;99.90;;;;;;5084386;28;20446;-49
2023/10/11 10:48:19;;;;;;;25.47;15.13;;;17.40;1.00;;;;;;5082593;28;20447;-50
2023/10/11 10:50:49;;;;;;;30.07;15.50;;;17.30;1.00;;;;;;5082026;28;20448;-57
2023/10/11 10:53:15;;;;;;;31.27;14.97;;;17.30;1.00;;;;;;5084562;28;20445;-48
2023/10/11 10:55:42;;;;;;;31.97;15.30;;;17.30;1.00;;;;;;5081406;28;20445;-54
2023/10/11 10:58:15;;;;;;;29.90;15.53;;;17.30;1.00;;;;;;5084195;28;20570;-48
2023/10/11 11:00:43;;;;;;;29.53;15.97;;;17.30;1.00;;;;;;5082941;28;20496;-49
2023/10/11 11:03:22;;;;;;;30.40;16.67;;;17.30;1.00;;;;;;5082485;28;20874;-51
2023/10/11 11:05:55;;;;;;;26.90;16.43;;;17.20;99.90;;;;;;5080779;28;20525;-49
2023/10/11 11:08:25;;;;;;;35.30;16.20;;;17.30;99.90;;;;;;5081702;28;20439;-49
2023/10/11 11:11:27;;;;;;;33.73;16.83;;;17.40;99.90;;;;;;5075507;28;20969;-49
2023/10/11 11:13:54;;;;;;;27.43;17.07;;;17.30;99.90;;;;;;5072085;28;20456;-48
2023/10/11 11:16:26;;;;;;;30.17;17.83;;;17.40;1.00;;;;;;5075992;28;20780;-49
2023/10/11 11:18:52;;;;;;;29.70;17.50;;;17.40;1.00;;;;;;5083558;28;20437;-47
2023/10/11 11:21:25;;;;;;;31.83;16.80;;;17.30;24.60;;;;;;5080487;28;20476;-50
2023/10/11 11:23:52;;;;;;;31.60;18.07;;;17.20;99.90;;;;;;5079558;28;20437;-54
2023/10/11 11:26:21;;;;;;;35.47;18.63;;;17.10;1.00;;;;;;5082180;28;20521;-50
2023/10/11 11:28:48;;;;;;;34.40;17.73;;;17.10;1.00;;;;;;5082032;28;20480;-62
2023/10/11 11:31:30;;;;;;;29.10;17.90;;;17.10;1.00;;;;;;5076225;28;20478;-48
2023/10/11 11:34:11;;;;;;;28.83;17.30;;;17.10;99.90;;;;;;5085676;28;20974;-49
2023/10/11 11:36:40;;;;;;;28.60;18.00;;;17.20;1.00;;;;;;5085816;28;20460;-50
2023/10/11 11:41:53;;;;;;;31.37;17.90;;;17.20;99.90;;;;;;5083775;28;20450;-49
2023/10/11 11:44:23;;;;;;;27.40;18.30;;;17.20;99.90;;;;;;5084994;28;20854;-49
2023/10/11 11:46:52;;;;;;;28.73;16.83;;;17.20;1.00;;;;;;5085865;28;20958;-52
2023/10/11 11:49:24;;;;;;;31.80;18.77;;;17.20;1.00;;;;;;5086977;28;20965;-50
2023/10/11 11:51:51;;;;;;;28.90;17.00;;;17.20;99.90;;;;;;5084485;28;20445;-49
2023/10/11 11:54:20;;;;;;;29.87;16.70;;;17.30;99.90;;;;;;5086401;28;20472;-64
2023/10/11 11:56:46;;;;;;;26.17;16.40;;;17.30;1.00;;;;;;5086319;28;20501;-51
2023/10/11 11:59:19;;;;;;;28.40;15.07;;;17.40;99.90;;;;;;5086080;28;20435;-61
2023/10/11 12:01:49;;;;;;;21.57;14.93;;;17.40;96.70;;;;;;5087403;28;20439;-50
2023/10/11 12:04:23;;;;;;;26.53;15.60;;;17.50;1.00;;;;;;5086139;28;20473;-50
2023/10/11 12:06:49;;;;;;;26.03;15.40;;;17.60;1.00;;;;;;5085796;28;20489;-51
2023/10/11 12:09:22;;;;;;;23.10;14.40;;;17.70;1.00;;;;;;5087609;28;20438;-49
2023/10/11 12:11:53;;;;;;;21.43;14.27;;;17.80;99.90;;;;;;5085056;28;20444;-49
2023/10/11 12:14:22;;;;;;;23.97;14.50;;;17.80;99.90;;;;;;5086719;28;20480;-51
2023/10/11 12:16:48;;;;;;;20.20;13.20;;;17.90;99.90;;;;;;5086701;28;20453;-49
2023/10/11 12:19:15;;;;;;;18.00;12.80;;;18.00;99.90;;;;;;5085018;28;20446;-49
2023/10/11 12:21:41;;;;;;;23.57;13.20;;;18.20;80.00;;;;;;5085240;28;20527;-49
2023/10/11 12:24:12;;;;;;;18.93;12.53;;;18.30;1.00;;;;;;5089841;28;20509;-49
2023/10/11 12:26:41;;;;;;;18.03;11.93;;;18.50;1.00;;;;;;5092663;28;20585;-50
2023/10/11 12:29:09;;;;;;;19.30;12.40;;;18.60;99.90;;;;;;5092952;28;20433;-51
2023/10/11 12:31:40;;;;;;;20.77;12.47;;;18.70;99.90;;;;;;5092846;28;20422;-50
2023/10/11 12:34:09;;;;;;;14.43;11.20;;;18.90;99.90;;;;;;5092684;28;20476;-50
2023/10/11 12:36:45;;;;;;;15.27;9.90;;;19.30;99.90;;;;;;5093296;28;20425;-48
2023/10/11 12:39:20;;;;;;;14.60;10.70;;;19.50;99.90;;;;;;5092733;28;20883;-50
2023/10/11 12:41:49;;;;;;;13.13;10.20;;;19.70;48.10;;;;;;5093678;28;20498;-54
2023/10/11 12:44:15;;;;;;;14.37;9.50;;;20.20;1.00;;;;;;5093302;28;20414;-49
2023/10/11 12:46:40;;;;;;;13.30;8.83;;;20.60;1.00;;;;;;5093941;28;20400;-50
2023/10/11 12:49:12;;;;;;;11.47;8.40;;;20.90;1.00;;;;;;5093200;28;20423;-50
2023/10/11 12:51:42;;;;;;;13.73;9.10;;;21.10;1.00;;;;;;5093726;28;20182;-51
2023/10/11 12:54:11;;;;;;;14.07;9.37;;;21.10;1.00;;;;;;5093432;28;20826;-49
2023/10/11 12:56:38;;;;;;;10.57;8.57;;;20.70;1.00;;;;;;5093033;28;20498;-54
2023/10/11 12:59:11;;;;;;;19.63;9.20;;;20.20;1.00;;;;;;5093138;28;20964;-49
2023/10/11 13:01:39;;;;;;;13.80;10.23;;;19.80;1.00;;;;;;5093152;28;20458;-51
2023/10/11 13:04:08;;;;;;;13.30;10.60;;;19.70;1.00;;;;;;5082452;28;20435;-50
2023/10/11 13:06:37;;;;;;;19.27;10.80;;;20.10;1.00;;;;;;5085041;28;20496;-50
2023/10/11 13:09:14;;;;;;;15.97;10.07;;;20.20;1.00;;;;;;5084270;28;20437;-50
2023/10/11 13:11:44;;;;;;;16.43;10.23;;;19.90;1.00;;;;;;5083338;28;20439;-50
2023/10/11 13:14:18;;;;;;;16.97;9.90;;;19.60;1.00;;;;;;5084913;28;20974;-50
2023/10/11 13:17:00;;;;;;;20.20;10.50;;;19.30;1.00;;;;;;5084677;28;20930;-50
2023/10/11 13:19:26;;;;;;;19.00;11.30;;;19.20;1.00;;;;;;5083535;28;20437;-49
2023/10/11 13:21:54;;;;;;;17.50;10.30;;;19.10;17.50;;;;;;5084524;28;20445;-53
2023/10/11 13:24:24;;;;;;;14.57;10.17;;;19.10;22.40;;;;;;5044391;28;1119761;-51
2023/10/11 13:26:58;;;;;;;14.87;10.70;;;19.10;17.30;;;;;;5084185;28;20600;-50
2023/10/11 13:29:24;;;;;;;14.33;10.00;;;19.00;25.10;;;;;;5085419;28;20435;-58
2023/10/11 13:31:55;;;;;;;20.40;11.33;;;18.80;54.10;;;;;;5084972;28;20431;-51
2023/10/11 13:34:23;;;;;;;16.20;9.93;;;18.80;69.10;;;;;;5082833;28;20550;-55
2023/10/11 13:36:49;;;;;;;17.00;10.00;;;18.70;77.10;;;;;;5085808;28;20470;-53